createdAt,value
2019-03-27T00:00:12.756Z,62.10
2019-03-27T00:02:46.220Z,62.43
2019-03-27T00:05:18.578Z,63.23
2019-03-27T00:07:50.804Z,63.00
2019-03-27T00:10:23.284Z,63.97
2019-03-27T00:12:55.549Z,66.53
2019-03-27T00:15:28.819Z,66.72
2019-03-27T00:18:01.008Z,64.17
2019-03-27T00:20:33.146Z,67.72
2019-03-27T00:23:05.184Z,63.68
2019-03-27T00:25:40.004Z,62.17
2019-03-27T00:28:12.236Z,62.35
2019-03-27T00:30:44.482Z,59.98
2019-03-27T00:33:16.699Z,58.10
2019-03-27T00:35:48.920Z,58.83
2019-03-27T00:38:21.005Z,56.95
2019-03-27T00:40:53.472Z,56.48
2019-03-27T00:43:25.708Z,56.08
2019-03-27T00:45:57.942Z,58.20
2019-03-27T00:48:30.144Z,57.67
2019-03-27T00:51:02.413Z,53.28
2019-03-27T00:53:34.621Z,52.55
2019-03-27T00:56:07.837Z,51.45
2019-03-27T00:58:40.264Z,53.10
2019-03-27T01:01:12.549Z,52.40
2019-03-27T01:03:44.750Z,52.53
2019-03-27T01:06:16.884Z,55.25
2019-03-27T01:08:48.918Z,58.17
2019-03-27T01:11:21.478Z,58.87
2019-03-27T01:13:53.620Z,59.83
2019-03-27T01:16:26.075Z,62.73
2019-03-27T01:18:58.207Z,60.73
2019-03-27T01:21:30.386Z,59.50
2019-03-27T01:24:02.536Z,60.75
2019-03-27T01:26:36.802Z,63.95
2019-03-27T01:29:08.949Z,66.22
2019-03-27T01:31:41.113Z,62.58
2019-03-27T01:34:13.444Z,61.80
2019-03-27T01:36:45.781Z,64.17
2019-03-27T01:39:17.985Z,64.13
2019-03-27T01:41:50.343Z,60.20
2019-03-27T01:44:22.552Z,63.33
2019-03-27T01:46:54.820Z,64.40
2019-03-27T01:49:28.121Z,61.53
2019-03-27T01:52:00.208Z,60.63
2019-03-27T01:54:32.430Z,58.52
2019-03-27T01:57:04.579Z,59.60
2019-03-27T01:59:36.736Z,58.90
2019-03-27T02:02:09.109Z,60.28
2019-03-27T02:04:41.319Z,56.18
2019-03-27T02:07:13.683Z,58.23
2019-03-27T02:09:45.892Z,58.30
2019-03-27T02:12:18.266Z,58.38
2019-03-27T02:14:50.526Z,57.13
2019-03-27T02:17:22.898Z,56.30
2019-03-27T02:19:56.261Z,57.93
2019-03-27T02:22:28.853Z,56.77
2019-03-27T02:25:00.988Z,56.20
2019-03-27T02:27:35.400Z,53.90
2019-03-27T02:30:08.876Z,55.43
2019-03-27T02:32:41.476Z,53.80
2019-03-27T02:35:13.682Z,51.53
2019-03-27T02:37:45.867Z,49.57
2019-03-27T02:40:18.183Z,50.90
2019-03-27T02:42:50.502Z,54.90
2019-03-27T02:45:22.750Z,53.83
2019-03-27T02:47:54.997Z,51.95
2019-03-27T02:50:27.325Z,52.03
2019-03-27T02:52:59.744Z,49.08
2019-03-27T02:55:31.959Z,47.67
2019-03-27T02:58:04.203Z,46.53
2019-03-27T03:00:36.489Z,45.20
2019-03-27T03:03:08.857Z,47.15
2019-03-27T03:05:40.921Z,46.48
2019-03-27T03:08:12.992Z,46.53
2019-03-27T03:10:45.802Z,43.50
2019-03-27T03:13:18.556Z,37.77
2019-03-27T03:15:50.870Z,37.42
2019-03-27T03:18:23.215Z,39.65
2019-03-27T03:20:55.555Z,38.78
2019-03-27T03:23:27.822Z,36.90
2019-03-27T03:25:59.980Z,37.25
2019-03-27T03:28:34.962Z,37.65
2019-03-27T03:31:07.315Z,40.48
2019-03-27T03:33:39.485Z,39.80
2019-03-27T03:36:11.641Z,42.60
2019-03-27T03:38:45.103Z,41.63
2019-03-27T03:41:17.375Z,41.05
2019-03-27T03:43:49.655Z,39.30
2019-03-27T03:46:21.808Z,38.90
2019-03-27T03:48:54.006Z,38.65
2019-03-27T03:51:26.167Z,38.60
2019-03-27T03:53:58.231Z,39.00
2019-03-27T03:56:30.417Z,37.63
2019-03-27T03:59:03.130Z,37.75
2019-03-27T04:01:35.458Z,38.35
2019-03-27T04:04:07.736Z,37.23
2019-03-27T04:06:39.860Z,38.45
2019-03-27T04:09:12.201Z,38.60
2019-03-27T04:11:44.533Z,37.88
2019-03-27T04:14:16.672Z,36.95
2019-03-27T04:16:49.083Z,41.47
2019-03-27T04:19:21.532Z,64.17
2019-03-27T04:21:53.653Z,38.53
2019-03-27T04:24:25.684Z,40.12
2019-03-27T04:26:57.835Z,35.17
2019-03-27T04:29:32.936Z,34.95
2019-03-27T04:32:05.056Z,34.20
2019-03-27T04:34:38.071Z,35.25
2019-03-27T04:37:10.295Z,34.03
2019-03-27T04:39:42.382Z,34.45
2019-03-27T04:42:14.606Z,33.65
2019-03-27T04:44:46.923Z,30.90
2019-03-27T04:47:31.567Z,30.60
2019-03-27T04:49:53.092Z,31.12
2019-03-27T04:52:25.091Z,27.63
2019-03-27T04:54:57.677Z,28.02
2019-03-27T04:57:30.998Z,28.17
2019-03-27T05:00:03.274Z,28.40
2019-03-27T05:02:35.487Z,47.60
2019-03-27T05:05:09.191Z,37.93
2019-03-27T05:07:41.403Z,31.33
2019-03-27T05:10:13.674Z,29.75
2019-03-27T05:12:45.863Z,32.67
2019-03-27T05:15:18.308Z,33.80
2019-03-27T05:17:50.579Z,35.43
2019-03-27T05:20:22.877Z,35.80
2019-03-27T05:22:55.050Z,32.78
2019-03-27T05:25:27.512Z,33.25
2019-03-27T05:27:59.895Z,36.05
2019-03-27T05:30:34.984Z,34.95
2019-03-27T05:33:07.185Z,30.50
2019-03-27T05:35:39.572Z,36.20
2019-03-27T05:38:11.611Z,30.12
2019-03-27T05:40:43.893Z,31.80
2019-03-27T05:43:16.228Z,30.57
2019-03-27T05:45:48.563Z,28.27
2019-03-27T05:48:20.956Z,29.55
2019-03-27T05:50:53.477Z,36.90
2019-03-27T05:53:25.482Z,30.05
2019-03-27T05:55:57.773Z,38.30
2019-03-27T05:58:29.991Z,31.60
2019-03-27T06:01:02.176Z,29.47
2019-03-27T06:03:34.401Z,28.80
2019-03-27T06:06:08.588Z,27.80
2019-03-27T06:08:41.007Z,28.23
2019-03-27T06:11:13.280Z,27.85
2019-03-27T06:13:45.435Z,32.05
2019-03-27T06:16:17.968Z,30.80
2019-03-27T06:18:50.736Z,48.38
2019-03-27T06:21:23.214Z,34.17
2019-03-27T06:23:55.455Z,32.10
2019-03-27T06:26:27.795Z,29.82
2019-03-27T06:28:59.983Z,28.90
2019-03-27T06:31:34.543Z,38.23
2019-03-27T06:34:06.782Z,33.48
2019-03-27T06:36:39.066Z,37.60
2019-03-27T06:39:11.081Z,31.75
2019-03-27T06:41:43.478Z,32.15
2019-03-27T06:44:15.649Z,31.33
2019-03-27T06:46:48.142Z,33.75
2019-03-27T06:49:20.579Z,31.73
2019-03-27T06:51:52.851Z,32.93
2019-03-27T06:54:25.850Z,46.68
2019-03-27T06:57:01.115Z,47.62
2019-03-27T06:59:32.538Z,33.60
2019-03-27T07:02:04.625Z,30.32
2019-03-27T07:04:37.070Z,30.13
2019-03-27T07:07:09.397Z,32.40
2019-03-27T07:09:42.700Z,30.48
2019-03-27T07:12:21.053Z,64.00
2019-03-27T07:14:49.695Z,30.75
2019-03-27T07:17:22.203Z,29.18
2019-03-27T07:19:54.231Z,29.40
2019-03-27T07:22:26.429Z,28.47
2019-03-27T07:24:59.075Z,35.43
2019-03-27T07:27:31.652Z,27.85
2019-03-27T07:30:04.075Z,27.10
2019-03-27T07:32:39.051Z,43.23
2019-03-27T07:35:12.581Z,28.25
2019-03-27T07:37:44.850Z,30.77
2019-03-27T07:40:17.185Z,27.77
2019-03-27T07:42:49.570Z,28.37
2019-03-27T07:45:21.749Z,27.58
2019-03-27T07:47:54.310Z,27.27
2019-03-27T07:50:27.724Z,27.75
2019-03-27T07:53:00.217Z,28.65
2019-03-27T07:55:32.389Z,28.30
2019-03-27T07:58:04.568Z,28.90
2019-03-27T08:00:36.671Z,27.80
2019-03-27T08:03:09.032Z,27.50
2019-03-27T08:05:41.260Z,27.65
2019-03-27T08:08:13.299Z,27.55
2019-03-27T08:10:45.323Z,28.07
2019-03-27T08:13:18.425Z,26.50
2019-03-27T08:15:50.675Z,26.87
2019-03-27T08:18:24.535Z,27.25
2019-03-27T08:20:56.571Z,26.68
2019-03-27T08:23:28.937Z,26.10
2019-03-27T08:26:01.159Z,27.27
2019-03-27T08:28:34.329Z,27.50
2019-03-27T08:31:06.570Z,27.07
2019-03-27T08:33:41.498Z,26.07
2019-03-27T08:36:13.841Z,26.77
2019-03-27T08:38:46.212Z,27.90
2019-03-27T08:41:18.452Z,27.13
2019-03-27T08:43:50.738Z,30.12
2019-03-27T08:46:22.858Z,36.73
2019-03-27T08:48:55.201Z,30.82
2019-03-27T08:51:28.518Z,29.42
2019-03-27T08:54:01.140Z,42.43
2019-03-27T08:56:33.397Z,28.60
2019-03-27T08:59:05.474Z,27.30
2019-03-27T09:01:37.618Z,25.80
2019-03-27T09:04:10.073Z,27.07
2019-03-27T09:06:42.424Z,25.50
2019-03-27T09:09:14.690Z,34.03
2019-03-27T09:11:47.116Z,28.32
2019-03-27T09:14:19.397Z,31.48
2019-03-27T09:16:51.656Z,33.07
2019-03-27T09:19:35.085Z,32.17
2019-03-27T09:21:57.432Z,27.20
2019-03-27T09:24:29.812Z,39.20
2019-03-27T09:27:02.093Z,30.35
2019-03-27T09:29:34.177Z,27.77
2019-03-27T09:32:06.322Z,26.02
2019-03-27T09:34:40.548Z,26.42
2019-03-27T09:37:12.975Z,26.03
2019-03-27T09:39:45.107Z,26.17
2019-03-27T09:42:18.074Z,26.12
2019-03-27T09:44:50.453Z,29.92
2019-03-27T09:47:22.905Z,29.42
2019-03-27T09:49:55.237Z,31.40
2019-03-27T09:52:27.628Z,25.82
2019-03-27T09:54:59.975Z,36.55
2019-03-27T09:57:32.353Z,37.30
2019-03-27T10:00:05.172Z,30.68
2019-03-27T10:02:37.296Z,26.53
2019-03-27T10:05:10.849Z,26.75
2019-03-27T10:07:43.091Z,26.42
2019-03-27T10:10:15.486Z,26.53
2019-03-27T10:12:47.626Z,27.52
2019-03-27T10:15:19.695Z,29.67
2019-03-27T10:17:51.813Z,28.50
2019-03-27T10:20:24.253Z,41.08
2019-03-27T10:22:56.483Z,32.00
2019-03-27T10:25:28.791Z,27.15
2019-03-27T10:28:01.179Z,26.93
2019-03-27T10:30:33.493Z,41.97
2019-03-27T10:33:05.647Z,35.13
2019-03-27T10:35:39.668Z,30.70
2019-03-27T10:38:12.893Z,28.15
2019-03-27T10:40:45.055Z,28.15
2019-03-27T10:43:17.351Z,27.95
2019-03-27T10:45:49.418Z,35.38
2019-03-27T10:48:22.462Z,30.25
2019-03-27T10:50:54.696Z,39.25
2019-03-27T10:53:27.025Z,29.12
2019-03-27T10:55:59.373Z,33.23
2019-03-27T10:58:31.582Z,35.48
2019-03-27T11:01:06.972Z,30.37
2019-03-27T11:03:37.390Z,33.35
2019-03-27T11:06:10.974Z,29.02
2019-03-27T11:08:43.308Z,35.15
2019-03-27T11:11:15.701Z,29.07
2019-03-27T11:25:42.581Z,26.70
2019-03-27T11:28:14.832Z,26.45
2019-03-27T11:30:48.470Z,25.72
2019-03-27T11:33:20.804Z,25.13
2019-03-27T11:35:54.649Z,25.57
2019-03-27T11:38:26.995Z,26.13
2019-03-27T11:40:59.277Z,25.02
2019-03-27T11:43:31.421Z,24.55
2019-03-27T11:46:03.785Z,23.47
2019-03-27T11:48:36.179Z,22.80
2019-03-27T11:51:08.399Z,23.62
2019-03-27T11:53:40.777Z,24.82
2019-03-27T11:56:13.869Z,23.92
2019-03-27T11:58:46.398Z,22.77
2019-03-27T12:01:18.643Z,23.10
2019-03-27T12:03:50.852Z,37.15
2019-03-27T12:06:23.123Z,24.37
2019-03-27T12:08:55.137Z,20.80
2019-03-27T12:11:27.327Z,21.23
2019-03-27T12:13:59.509Z,22.10
2019-03-27T12:16:31.693Z,21.87
2019-03-27T12:19:03.923Z,21.30
2019-03-27T12:21:36.172Z,20.70
2019-03-27T12:24:08.238Z,21.00
2019-03-27T12:26:40.578Z,21.42
2019-03-27T12:29:12.912Z,22.02
2019-03-27T12:31:45.028Z,23.30
2019-03-27T12:34:17.483Z,24.37
2019-03-27T12:36:51.679Z,24.15
2019-03-27T12:39:23.678Z,25.80
2019-03-27T12:41:56.051Z,23.65
2019-03-27T12:44:28.046Z,23.22
2019-03-27T12:47:00.219Z,23.85
2019-03-27T12:49:32.627Z,23.40
2019-03-27T12:52:05.737Z,23.55
2019-03-27T12:54:38.083Z,23.83
2019-03-27T12:57:10.467Z,23.45
2019-03-27T12:59:42.936Z,22.75
2019-03-27T13:02:15.378Z,23.75
2019-03-27T13:04:47.622Z,24.70
2019-03-27T13:07:21.080Z,24.67
2019-03-27T13:09:53.426Z,27.50
2019-03-27T13:12:25.854Z,27.40
2019-03-27T13:14:58.064Z,28.77
2019-03-27T13:17:30.214Z,28.47
2019-03-27T13:20:02.526Z,27.35
2019-03-27T13:22:38.012Z,26.73
2019-03-27T13:25:09.709Z,26.80
2019-03-27T13:27:42.381Z,25.75
2019-03-27T13:30:14.734Z,23.45
2019-03-27T13:32:46.993Z,22.05
2019-03-27T13:35:19.307Z,20.48
2019-03-27T13:37:51.867Z,20.55
2019-03-27T13:40:24.352Z,19.10
2019-03-27T13:42:56.672Z,17.98
2019-03-27T13:45:28.773Z,19.55
2019-03-27T13:48:01.228Z,20.08
2019-03-27T13:50:33.630Z,25.17
2019-03-27T13:53:05.907Z,26.97
2019-03-27T13:55:38.831Z,28.38
2019-03-27T13:58:11.334Z,27.77
2019-03-27T14:00:43.732Z,30.02
2019-03-27T14:03:15.958Z,30.37
2019-03-27T14:05:48.094Z,32.80
2019-03-27T14:08:20.366Z,30.35
2019-03-27T14:10:55.588Z,29.65
2019-03-27T14:13:28.123Z,27.73
2019-03-27T14:16:00.699Z,29.98
2019-03-27T14:18:33.223Z,30.50
2019-03-27T14:21:05.471Z,30.92
2019-03-27T14:23:37.835Z,31.90
2019-03-27T14:26:09.977Z,28.23
2019-03-27T14:28:42.160Z,29.10
2019-03-27T14:31:14.399Z,30.05
2019-03-27T14:33:46.576Z,30.50
2019-03-27T14:36:18.822Z,31.90
2019-03-27T14:38:51.561Z,29.85
2019-03-27T14:41:23.868Z,29.63
2019-03-27T14:43:55.897Z,30.80
2019-03-27T14:46:27.987Z,31.93
2019-03-27T14:49:00.260Z,31.57
2019-03-27T14:51:32.948Z,32.28
2019-03-27T14:54:05.408Z,31.57
2019-03-27T14:56:37.611Z,29.92
2019-03-27T14:59:10.876Z,29.30
2019-03-27T15:01:44.267Z,29.00
2019-03-27T15:04:16.407Z,31.07
2019-03-27T15:06:48.565Z,31.97
2019-03-27T15:09:20.874Z,32.83
2019-03-27T15:11:52.996Z,35.30
2019-03-27T15:14:25.133Z,29.30
2019-03-27T15:16:57.571Z,28.47
2019-03-27T15:19:29.844Z,28.52
2019-03-27T15:22:02.302Z,28.20
2019-03-27T15:24:34.482Z,26.80
2019-03-27T15:27:07.765Z,27.77
2019-03-27T15:29:41.047Z,26.67
2019-03-27T15:32:13.353Z,27.70
2019-03-27T15:34:45.613Z,27.87
2019-03-27T15:37:17.843Z,27.40
2019-03-27T15:39:50.361Z,28.90
2019-03-27T15:42:22.643Z,29.42
2019-03-27T15:44:54.996Z,26.68
2019-03-27T15:47:27.715Z,29.92
2019-03-27T15:50:00.101Z,30.40
2019-03-27T15:52:36.634Z,29.30
2019-03-27T15:55:06.030Z,28.62
2019-03-27T15:57:38.282Z,27.73
2019-03-27T16:00:10.931Z,29.10
2019-03-27T16:02:43.530Z,31.77
2019-03-27T16:05:15.696Z,31.17
2019-03-27T16:07:47.897Z,32.13
2019-03-27T16:10:20.158Z,32.83
2019-03-27T16:12:52.459Z,32.60
2019-03-27T16:15:24.667Z,31.48
2019-03-27T16:17:56.830Z,33.30
2019-03-27T16:20:29.018Z,34.23
2019-03-27T16:23:01.285Z,34.30
2019-03-27T16:25:33.540Z,32.75
2019-03-27T16:28:05.980Z,35.50
2019-03-27T16:30:38.430Z,34.60
2019-03-27T16:33:10.732Z,33.60
2019-03-27T16:35:42.993Z,34.77
2019-03-27T16:38:15.562Z,35.83
2019-03-27T16:40:48.913Z,34.67
2019-03-27T16:43:21.479Z,35.77
2019-03-27T16:45:53.849Z,35.43
2019-03-27T16:48:26.365Z,35.10
2019-03-27T16:50:58.597Z,34.80
2019-03-27T16:53:31.813Z,36.95
2019-03-27T16:56:03.942Z,36.13
2019-03-27T16:58:36.506Z,38.15
2019-03-27T17:01:08.744Z,37.73
2019-03-27T17:03:41.124Z,40.33
2019-03-27T17:06:13.471Z,40.23
2019-03-27T17:08:45.625Z,39.83
2019-03-27T17:11:17.883Z,38.78
2019-03-27T17:13:49.931Z,33.80
2019-03-27T17:16:21.973Z,32.38
2019-03-27T17:18:54.340Z,33.42
2019-03-27T17:21:26.698Z,32.33
2019-03-27T17:23:58.981Z,33.67
2019-03-27T17:26:31.110Z,35.90
2019-03-27T17:29:03.520Z,33.47
2019-03-27T17:31:35.947Z,33.53
2019-03-27T17:34:08.319Z,34.75
2019-03-27T17:36:41.029Z,35.93
2019-03-27T17:39:13.298Z,39.38
2019-03-27T17:41:47.086Z,36.25
2019-03-27T17:44:19.490Z,35.78
2019-03-27T17:46:51.621Z,35.30
2019-03-27T17:49:24.085Z,36.20
2019-03-27T17:51:56.355Z,37.08
2019-03-27T17:54:28.798Z,37.50
2019-03-27T17:57:01.159Z,38.20
2019-03-27T17:59:34.417Z,37.42
2019-03-27T18:02:06.558Z,38.00
2019-03-27T18:04:39.094Z,38.57
2019-03-27T18:07:11.217Z,41.60
2019-03-27T18:09:43.629Z,37.70
2019-03-27T18:12:15.991Z,40.67
2019-03-27T18:14:49.374Z,41.33
2019-03-27T18:17:21.896Z,39.38
2019-03-27T18:19:54.052Z,39.60
2019-03-27T18:22:27.220Z,40.03
2019-03-27T18:24:59.601Z,40.97
2019-03-27T18:27:32.107Z,40.07
2019-03-27T18:30:04.249Z,40.05
2019-03-27T18:32:37.097Z,42.23
2019-03-27T18:35:09.429Z,40.58
2019-03-27T18:37:41.602Z,38.40
2019-03-27T18:40:14.068Z,39.88
2019-03-27T18:42:46.559Z,45.05
2019-03-27T18:45:18.825Z,45.48
2019-03-27T18:47:51.058Z,41.63
2019-03-27T18:50:23.335Z,46.30
2019-03-27T18:52:55.575Z,38.67
2019-03-27T18:55:27.931Z,37.08
2019-03-27T18:58:00.842Z,39.50
2019-03-27T19:00:33.584Z,38.65
2019-03-27T19:03:06.118Z,39.33
2019-03-27T19:05:38.519Z,41.30
2019-03-27T19:08:10.753Z,41.10
2019-03-27T19:10:43.024Z,38.40
2019-03-27T19:13:15.322Z,40.05
2019-03-27T19:15:47.581Z,40.83
2019-03-27T19:18:19.853Z,42.47
2019-03-27T19:20:52.099Z,38.37
2019-03-27T19:23:24.448Z,43.87
2019-03-27T19:25:56.774Z,44.05
2019-03-27T19:28:28.983Z,42.40
2019-03-27T19:31:01.258Z,46.58
2019-03-27T19:33:33.499Z,38.58
2019-03-27T19:36:06.184Z,39.60
2019-03-27T19:38:38.478Z,37.95
2019-03-27T19:41:10.810Z,38.65
2019-03-27T19:43:43.208Z,42.07
2019-03-27T19:46:15.680Z,42.20
2019-03-27T19:48:48.010Z,42.67
2019-03-27T19:51:20.071Z,41.60
2019-03-27T19:53:52.098Z,40.92
2019-03-27T19:56:24.407Z,41.42
2019-03-27T19:58:56.542Z,44.67
2019-03-27T20:01:28.815Z,48.83
2019-03-27T20:04:01.072Z,50.30
2019-03-27T20:06:33.488Z,47.48
2019-03-27T20:09:07.125Z,51.58
2019-03-27T20:11:39.615Z,52.90
2019-03-27T20:14:12.173Z,50.05
2019-03-27T20:16:44.373Z,45.75
2019-03-27T20:19:16.637Z,44.18
2019-03-27T20:21:48.818Z,46.92
2019-03-27T20:24:22.141Z,52.20
2019-03-27T20:26:54.215Z,49.93
2019-03-27T20:29:26.379Z,53.73
2019-03-27T20:31:58.456Z,47.08
2019-03-27T20:34:30.894Z,51.05
2019-03-27T20:37:03.210Z,47.48
2019-03-27T20:39:35.644Z,47.40
2019-03-27T20:42:08.006Z,54.38
2019-03-27T20:44:40.337Z,46.55
2019-03-27T20:47:12.592Z,48.28
2019-03-27T20:49:44.948Z,52.50
2019-03-27T20:52:17.382Z,54.63
2019-03-27T20:54:55.010Z,55.03
2019-03-27T20:57:23.090Z,52.67
2019-03-27T20:59:55.412Z,52.27
2019-03-27T21:02:27.548Z,54.33
2019-03-27T21:04:59.683Z,53.23
2019-03-27T21:07:32.191Z,53.17
2019-03-27T21:10:04.312Z,58.30
2019-03-27T21:12:36.682Z,58.83
2019-03-27T21:15:09.481Z,59.77
2019-03-27T21:17:41.618Z,61.05
2019-03-27T21:20:14.045Z,58.15
2019-03-27T21:22:46.421Z,77.35
2019-03-27T21:25:18.750Z,74.07
2019-03-27T21:27:50.813Z,65.27
2019-03-27T21:30:23.331Z,66.20
2019-03-27T21:32:55.860Z,57.00
2019-03-27T21:35:27.901Z,58.63
2019-03-27T21:38:00.199Z,58.50
2019-03-27T21:40:32.436Z,79.25
2019-03-27T21:43:04.603Z,81.17
2019-03-27T21:45:36.937Z,62.03
2019-03-27T21:48:09.197Z,65.05
2019-03-27T21:50:41.605Z,56.33
2019-03-27T21:53:14.084Z,57.78
2019-03-27T21:55:46.336Z,58.42
2019-03-27T21:58:18.766Z,56.77
2019-03-27T22:00:50.885Z,57.93
2019-03-27T22:03:23.141Z,61.42
2019-03-27T22:05:55.515Z,67.40
2019-03-27T22:08:28.135Z,69.65
2019-03-27T22:11:00.286Z,73.60
2019-03-27T22:13:32.644Z,63.00
2019-03-27T22:16:04.858Z,58.28
2019-03-27T22:18:36.911Z,67.22
2019-03-27T22:21:09.089Z,68.28
2019-03-27T22:23:41.218Z,71.90
2019-03-27T22:26:13.375Z,68.92
2019-03-27T22:28:45.555Z,62.88
2019-03-27T22:31:17.887Z,74.80
2019-03-27T22:33:51.165Z,66.47
2019-03-27T22:36:23.367Z,69.63
2019-03-27T22:38:55.690Z,60.92
2019-03-27T22:41:27.865Z,58.15
2019-03-27T22:44:00.356Z,60.63
2019-03-27T22:46:33.055Z,57.05
2019-03-27T22:49:05.647Z,57.50
2019-03-27T22:51:38.123Z,55.60
2019-03-27T22:54:10.489Z,56.93
2019-03-27T22:56:42.707Z,55.80
2019-03-27T22:59:14.867Z,57.10
2019-03-27T23:01:47.769Z,55.08
2019-03-27T23:04:19.972Z,54.67
2019-03-27T23:06:52.094Z,56.40
2019-03-27T23:09:24.501Z,58.63
2019-03-27T23:11:56.729Z,57.60
2019-03-27T23:14:28.926Z,56.77
2019-03-27T23:17:01.275Z,55.70
2019-03-27T23:19:33.333Z,54.40
2019-03-27T23:22:05.463Z,55.35
2019-03-27T23:24:37.769Z,53.70
2019-03-27T23:27:09.982Z,56.55
2019-03-27T23:29:42.239Z,53.40
2019-03-27T23:32:14.493Z,50.67
2019-03-27T23:34:46.772Z,53.40
2019-03-27T23:37:19.225Z,52.93
2019-03-27T23:39:51.503Z,50.97
2019-03-27T23:42:23.842Z,49.53
2019-03-27T23:44:55.982Z,49.18
2019-03-27T23:47:29.532Z,49.40
2019-03-27T23:50:01.721Z,51.25
2019-03-27T23:52:34.188Z,49.65
2019-03-27T23:55:07.463Z,49.50
2019-03-27T23:57:39.598Z,46.95
